Time;durP1;ratioP1;P1;durP2;ratioP2;P2;SDS_P1;SDS_P2;PMS_P1;PMS_P2;Temp;Humidity;BMP_temperature;BMP_pressure;BME280_temperature;BME280_humidity;BME280_pressure;Samples;Min_cycle;Max_cycle;Signal;HPM_P1;HPM_P2
2023/12/17 00:00:37;;;;;;;9.63;5.40;;;;;;;4.89;100.00;102897.38;5007957;28;20663;-72
2023/12/17 00:03:04;;;;;;;12.83;6.13;;;;;;;4.89;100.00;102903.56;5007504;28;20198;-70
2023/12/17 00:05:46;;;;;;;12.60;4.97;;;;;;;4.94;100.00;102888.16;5008351;28;20208;-73
2023/12/17 00:08:13;;;;;;;9.30;5.00;;;;;;;4.86;100.00;102876.16;4994920;28;20308;-73
2023/12/17 00:10:39;;;;;;;10.93;5.33;;;;;;;4.89;100.00;102879.94;5006167;28;20606;-72
2023/12/17 00:13:07;;;;;;;15.20;5.77;;;;;;;4.89;100.00;102873.75;5006084;28;20203;-73
2023/12/17 00:15:34;;;;;;;12.23;5.17;;;;;;;4.91;100.00;102872.16;5007900;28;20596;-71
2023/12/17 00:18:00;;;;;;;14.63;5.33;;;;;;;4.99;100.00;102877.19;5011476;28;20225;-72
2023/12/17 00:20:27;;;;;;;11.13;5.67;;;;;;;5.01;100.00;102878.22;5010281;28;20209;-72
2023/12/17 00:22:53;;;;;;;12.00;5.17;;;;;;;5.00;100.00;102880.72;5003304;28;20701;-72
2023/12/17 00:25:19;;;;;;;14.73;5.27;;;;;;;4.98;100.00;102892.84;5010521;28;20305;-72
2023/12/17 00:27:46;;;;;;;15.90;6.10;;;;;;;4.87;100.00;102880.63;5012258;28;20224;-71
2023/12/17 00:30:12;;;;;;;9.97;4.80;;;;;;;4.85;100.00;102891.00;5007057;28;20248;-72
2023/12/17 00:32:41;;;;;;;9.97;4.77;;;;;;;4.84;100.00;102896.13;5005887;28;20666;-73
2023/12/17 00:35:08;;;;;;;11.43;5.20;;;;;;;4.85;100.00;102891.00;5006026;28;20204;-74
2023/12/17 00:37:37;;;;;;;9.63;5.20;;;;;;;5.00;100.00;102893.88;5005364;28;20225;-72
2023/12/17 00:40:05;;;;;;;11.03;5.03;;;;;;;4.92;100.00;102890.66;5010335;28;20205;-72
2023/12/17 00:42:31;;;;;;;10.53;5.13;;;;;;;4.87;100.00;102886.78;5009755;28;20668;-73
2023/12/17 00:44:58;;;;;;;10.80;5.70;;;;;;;4.94;100.00;102891.69;5003435;28;20266;-71
2023/12/17 00:47:24;;;;;;;11.43;6.23;;;;;;;4.89;100.00;102894.75;5006441;28;20228;-72
2023/12/17 00:49:52;;;;;;;8.10;4.80;;;;;;;4.97;100.00;102894.53;5008380;28;20223;-72
2023/12/17 00:52:22;;;;;;;15.10;5.47;;;;;;;4.94;100.00;102890.78;5004657;28;20206;-72
2023/12/17 00:54:49;;;;;;;9.23;5.13;;;;;;;4.93;100.00;102891.56;5007617;28;20224;-71
2023/12/17 00:57:15;;;;;;;11.67;5.77;;;;;;;4.86;100.00;102891.91;5005516;28;20223;-73
2023/12/17 00:59:42;;;;;;;10.33;5.57;;;;;;;4.86;100.00;102899.78;5009411;28;20204;-73
2023/12/17 01:02:08;;;;;;;12.43;5.53;;;;;;;4.91;100.00;102903.66;5009096;28;20263;-74
2023/12/17 01:04:34;;;;;;;12.33;5.57;;;;;;;4.86;100.00;102907.66;5006452;28;20646;-72
2023/12/17 01:07:01;;;;;;;11.37;5.40;;;;;;;4.86;100.00;102895.44;5008550;28;20225;-73
2023/12/17 01:09:27;;;;;;;11.30;5.67;;;;;;;4.91;100.00;102896.72;5007539;28;20226;-71
2023/12/17 01:11:54;;;;;;;9.50;5.20;;;;;;;4.89;100.00;102881.63;5024460;28;20296;-72
2023/12/17 01:14:21;;;;;;;10.73;5.00;;;;;;;4.91;100.00;102883.59;5007455;28;20209;-72
2023/12/17 01:16:47;;;;;;;11.77;6.03;;;;;;;4.92;100.00;102885.41;5006092;28;20221;-73
2023/12/17 01:19:14;;;;;;;10.63;5.53;;;;;;;5.03;100.00;102884.50;5005247;28;20684;-74
2023/12/17 01:21:40;;;;;;;12.73;5.47;;;;;;;4.93;100.00;102889.88;5002449;28;20338;-73
2023/12/17 01:24:07;;;;;;;10.37;5.70;;;;;;;5.07;100.00;102885.66;5005554;28;20209;-73
2023/12/17 01:26:35;;;;;;;15.43;5.80;;;;;;;5.08;100.00;102881.31;5005851;28;20366;-74
2023/12/17 01:29:02;;;;;;;10.47;5.70;;;;;;;4.94;100.00;102870.69;5004877;28;20699;-73
2023/12/17 01:31:30;;;;;;;9.60;5.17;;;;;;;5.01;100.00;102879.94;5005340;28;20221;-72
2023/12/17 01:33:56;;;;;;;12.40;5.60;;;;;;;5.07;100.00;102887.34;5026051;28;20686;-73
2023/12/17 01:36:23;;;;;;;11.20;5.57;;;;;;;5.07;100.00;102883.03;5011548;28;20289;-72
2023/12/17 01:38:49;;;;;;;9.33;5.43;;;;;;;5.06;100.00;102877.66;5007612;28;20230;-74
2023/12/17 01:41:16;;;;;;;12.03;5.40;;;;;;;5.14;100.00;102866.91;5011199;28;20200;-72
2023/12/17 01:43:42;;;;;;;10.87;5.83;;;;;;;5.17;100.00;102882.00;5010852;28;21880;-72
2023/12/17 01:46:09;;;;;;;10.70;5.57;;;;;;;5.14;100.00;102876.50;5009249;28;20279;-73
2023/12/17 01:48:35;;;;;;;17.30;5.73;;;;;;;5.10;100.00;102875.38;5009747;28;20231;-72
2023/12/17 01:51:02;;;;;;;11.17;5.80;;;;;;;5.08;100.00;102871.72;5020051;28;20241;-73
2023/12/17 01:53:29;;;;;;;14.63;5.37;;;;;;;5.09;100.00;102872.63;5005290;28;20289;-74
2023/12/17 01:55:55;;;;;;;10.33;5.60;;;;;;;5.16;100.00;102883.69;5008098;28;20205;-72
2023/12/17 01:58:22;;;;;;;11.43;5.17;;;;;;;5.12;100.00;102878.09;5004833;28;20249;-73
2023/12/17 02:00:49;;;;;;;13.33;5.37;;;;;;;5.18;100.00;102892.59;5003743;28;20214;-72
2023/12/17 02:03:15;;;;;;;11.67;6.07;;;;;;;5.30;100.00;102893.56;5005373;28;20678;-73
2023/12/17 02:05:45;;;;;;;9.03;5.10;;;;;;;5.22;100.00;102891.16;5005072;28;20558;-73
2023/12/17 02:08:12;;;;;;;11.73;5.87;;;;;;;5.17;100.00;102884.63;5001355;28;20226;-71
2023/12/17 02:10:38;;;;;;;9.60;5.20;;;;;;;5.15;100.00;102889.75;5016330;28;20223;-72
2023/12/17 02:13:09;;;;;;;13.17;4.90;;;;;;;5.15;100.00;102886.22;5004832;28;20210;-74
2023/12/17 02:15:37;;;;;;;13.07;5.10;;;;;;;5.16;100.00;102890.66;4999071;28;20285;-73
2023/12/17 02:18:04;;;;;;;11.93;5.60;;;;;;;5.19;100.00;102894.44;5021207;28;20220;-73
2023/12/17 02:20:34;;;;;;;11.53;5.40;;;;;;;5.19;100.00;102896.16;5003803;28;20210;-72
2023/12/17 02:23:04;;;;;;;8.77;5.33;;;;;;;5.31;100.00;102892.75;5005145;28;20205;-74
2023/12/17 02:25:31;;;;;;;10.53;4.90;;;;;;;5.27;100.00;102897.66;4997456;28;20229;-73
2023/12/17 02:27:59;;;;;;;12.73;6.03;;;;;;;5.25;100.00;102891.38;5005307;28;20222;-73
2023/12/17 02:30:25;;;;;;;13.63;6.23;;;;;;;5.19;100.00;102893.53;5013330;28;20299;-73
2023/12/17 02:32:52;;;;;;;10.17;5.53;;;;;;;5.19;100.00;102888.28;5006435;28;20292;-73
2023/12/17 02:35:18;;;;;;;12.17;4.97;;;;;;;5.17;100.00;102885.53;5009481;28;20228;-72
2023/12/17 02:37:45;;;;;;;11.70;5.50;;;;;;;5.16;100.00;102874.91;5006276;28;20226;-74
2023/12/17 02:40:11;;;;;;;8.73;5.07;;;;;;;5.14;100.00;102864.28;5006809;28;20199;-72
2023/12/17 02:42:38;;;;;;;12.30;5.50;;;;;;;5.19;100.00;102864.63;5003432;28;20289;-73
2023/12/17 02:45:04;;;;;;;11.80;4.70;;;;;;;5.22;100.00;102862.25;5010227;28;20230;-74
2023/12/17 02:47:31;;;;;;;9.50;5.23;;;;;;;5.30;100.00;102869.00;4972251;28;1072220;-73
2023/12/17 02:49:58;;;;;;;10.47;5.03;;;;;;;5.27;100.00;102858.25;5010191;28;20226;-74
2023/12/17 02:52:26;;;;;;;9.70;4.53;;;;;;;5.24;100.00;102855.41;5013403;28;20291;-74
2023/12/17 02:54:52;;;;;;;11.43;5.50;;;;;;;5.19;100.00;102838.38;5010487;28;20199;-73
2023/12/17 02:57:18;;;;;;;13.67;5.40;;;;;;;5.18;100.00;102853.22;5007115;28;20226;-73
2023/12/17 02:59:45;;;;;;;9.00;4.97;;;;;;;5.21;100.00;102847.31;5008131;28;20297;-75
2023/12/17 03:02:11;;;;;;;13.33;5.93;;;;;;;5.21;100.00;102847.31;5010186;28;20670;-73
2023/12/17 03:04:38;;;;;;;13.93;6.60;;;;;;;5.17;100.00;102846.13;5007309;28;20210;-73
2023/12/17 03:07:04;;;;;;;16.73;7.13;;;;;;;5.20;100.00;102845.44;5008129;28;20343;-73
2023/12/17 03:09:31;;;;;;;12.00;6.23;;;;;;;5.20;100.00;102842.81;5009433;28;20209;-74
2023/12/17 03:11:57;;;;;;;14.17;6.60;;;;;;;5.20;100.00;102840.19;5010568;28;20226;-72
2023/12/17 03:14:24;;;;;;;17.50;7.27;;;;;;;5.18;100.00;102845.31;5007769;28;20223;-72
2023/12/17 03:16:51;;;;;;;13.30;6.10;;;;;;;5.19;100.00;102844.53;5011890;28;20570;-74
2023/12/17 03:19:17;;;;;;;12.07;6.07;;;;;;;5.18;100.00;102831.28;5008588;28;20209;-73
2023/12/17 03:21:43;;;;;;;13.87;6.53;;;;;;;5.25;100.00;102831.88;5010726;28;20204;-73
2023/12/17 03:24:10;;;;;;;17.83;5.73;;;;;;;5.21;100.00;102827.19;5007358;28;20214;-73
2023/12/17 03:26:36;;;;;;;11.73;6.30;;;;;;;5.12;100.00;102822.94;5008957;28;20238;-73
2023/12/17 03:29:03;;;;;;;13.93;6.80;;;;;;;5.14;100.00;102826.59;5008623;28;20211;-74
2023/12/17 03:31:29;;;;;;;13.47;6.27;;;;;;;5.16;100.00;102823.28;5010740;28;20229;-71
2023/12/17 03:33:56;;;;;;;10.80;5.50;;;;;;;5.13;100.00;102832.66;5008755;28;20577;-73
2023/12/17 03:36:22;;;;;;;14.80;5.93;;;;;;;5.11;100.00;102822.03;5009966;28;20512;-72
2023/12/17 03:38:49;;;;;;;11.47;5.87;;;;;;;5.14;100.00;102829.22;5022347;28;21727;-72
2023/12/17 03:41:33;;;;;;;15.90;6.40;;;;;;;5.13;100.00;102822.16;5005748;28;20196;-74
2023/12/17 03:44:00;;;;;;;16.87;6.93;;;;;;;5.19;100.00;102827.84;5008413;28;20587;-72
2023/12/17 03:46:26;;;;;;;9.37;5.77;;;;;;;5.10;100.00;102809.72;5008192;28;20211;-72
2023/12/17 03:48:52;;;;;;;9.27;5.47;;;;;;;5.16;100.00;102823.28;5008786;28;20226;-73
2023/12/17 03:51:19;;;;;;;14.20;6.53;;;;;;;5.14;100.00;102818.72;5012266;28;20213;-73
2023/12/17 03:53:46;;;;;;;12.57;6.13;;;;;;;5.14;100.00;102824.88;5008000;28;20214;-74
2023/12/17 03:56:14;;;;;;;15.57;5.97;;;;;;;5.16;100.00;102828.53;5006315;28;20696;-73
2023/12/17 03:58:41;;;;;;;16.20;6.40;;;;;;;5.13;100.00;102820.44;5006675;28;20255;-73
2023/12/17 04:01:07;;;;;;;11.17;5.67;;;;;;;5.13;100.00;102823.06;5010715;28;20196;-74
2023/12/17 04:03:35;;;;;;;13.70;5.83;;;;;;;5.11;100.00;102822.03;5024933;28;20200;-73
2023/12/17 04:06:05;;;;;;;12.47;6.03;;;;;;;5.11;100.00;102826.38;5012359;28;20202;-73
2023/12/17 04:08:31;;;;;;;9.60;5.23;;;;;;;5.19;100.00;102827.84;5007323;28;20777;-73
2023/12/17 04:10:58;;;;;;;11.03;6.00;;;;;;;5.13;100.00;102820.44;5009087;28;20223;-74
2023/12/17 04:13:25;;;;;;;10.63;5.93;;;;;;;5.13;100.00;102820.44;5007474;28;20551;-72
2023/12/17 04:15:51;;;;;;;12.37;6.07;;;;;;;5.16;100.00;102823.28;5002655;28;20208;-73
2023/12/17 04:18:18;;;;;;;12.13;6.20;;;;;;;5.17;100.00;102826.81;5011482;28;20229;-73
2023/12/17 04:20:44;;;;;;;10.50;5.77;;;;;;;5.12;100.00;102823.88;5008083;28;20233;-73
2023/12/17 04:23:11;;;;;;;10.93;5.67;;;;;;;5.11;100.00;102822.03;5005941;28;20626;-72
2023/12/17 04:25:37;;;;;;;12.63;5.67;;;;;;;5.06;100.00;102812.00;5008518;28;20205;-72
2023/12/17 04:28:03;;;;;;;12.60;6.40;;;;;;;5.07;100.00;102830.50;5009953;28;20230;-73
2023/12/17 04:30:30;;;;;;;14.63;6.40;;;;;;;5.03;100.00;102831.06;5010564;28;20611;-73
2023/12/17 04:32:56;;;;;;;12.23;6.37;;;;;;;4.99;100.00;102832.56;5002383;28;20198;-74
2023/12/17 04:35:23;;;;;;;12.27;5.67;;;;;;;5.03;100.00;102825.81;5007773;28;20210;-73
2023/12/17 04:37:49;;;;;;;9.80;5.90;;;;;;;5.03;100.00;102828.44;5002835;28;20229;-74
2023/12/17 04:40:16;;;;;;;12.37;6.33;;;;;;;5.11;100.00;102818.50;5006272;28;20762;-72
2023/12/17 04:42:42;;;;;;;14.93;5.90;;;;;;;5.04;100.00;102811.88;5007695;28;20212;-73
2023/12/17 04:45:09;;;;;;;15.20;5.87;;;;;;;5.06;100.00;102814.63;5007993;28;20207;-73
2023/12/17 04:47:35;;;;;;;13.00;5.70;;;;;;;5.04;100.00;102818.03;5005573;28;20252;-76
2023/12/17 04:50:03;;;;;;;11.40;5.30;;;;;;;5.07;100.00;102819.06;5006325;28;20253;-73
2023/12/17 04:52:29;;;;;;;13.47;5.77;;;;;;;5.04;100.00;102823.31;5012157;28;20272;-74
2023/12/17 04:55:00;;;;;;;12.00;5.67;;;;;;;5.09;100.00;102825.34;5005304;28;20238;-73
2023/12/17 04:57:26;;;;;;;16.70;6.23;;;;;;;5.12;100.00;102828.22;5007145;28;20222;-73
2023/12/17 04:59:52;;;;;;;9.60;5.73;;;;;;;5.14;100.00;102816.09;5009895;28;20519;-72
2023/12/17 05:02:19;;;;;;;9.53;5.40;;;;;;;5.05;100.00;102816.34;5009906;28;20288;-73
2023/12/17 05:04:45;;;;;;;12.27;5.27;;;;;;;5.00;100.00;102816.00;5008230;28;20202;-73
2023/12/17 05:07:12;;;;;;;12.03;5.70;;;;;;;4.98;100.00;102820.22;5008145;28;20374;-72
2023/12/17 05:09:38;;;;;;;12.30;5.70;;;;;;;5.02;100.00;102814.41;5006171;28;20291;-72
2023/12/17 05:12:05;;;;;;;13.00;5.97;;;;;;;5.09;100.00;102817.47;5006202;28;20218;-72
2023/12/17 05:14:32;;;;;;;13.00;5.53;;;;;;;4.96;100.00;102806.06;5005899;28;20211;-73
2023/12/17 05:17:00;;;;;;;13.90;5.60;;;;;;;4.98;100.00;102807.09;5004686;28;20599;-73
2023/12/17 05:19:27;;;;;;;14.50;5.93;;;;;;;4.90;100.00;102796.81;5008916;28;20214;-74
2023/12/17 05:21:54;;;;;;;14.40;5.73;;;;;;;4.92;100.00;102792.59;5020295;28;20574;-74
2023/12/17 05:24:20;;;;;;;12.30;5.43;;;;;;;4.95;100.00;102812.13;5013783;28;20204;-73
2023/12/17 05:26:47;;;;;;;11.10;5.60;;;;;;;4.93;100.00;102803.22;5006135;28;20226;-73
2023/12/17 05:29:13;;;;;;;8.63;4.87;;;;;;;4.93;100.00;102810.19;5007415;28;20274;-73
2023/12/17 05:31:40;;;;;;;12.07;5.13;;;;;;;4.92;100.00;102805.72;5019932;28;20252;-72
2023/12/17 05:34:08;;;;;;;9.10;5.07;;;;;;;4.87;100.00;102810.63;5004473;28;20204;-75
2023/12/17 05:36:35;;;;;;;18.00;5.80;;;;;;;4.83;100.00;102805.97;5009364;28;20209;-72
2023/12/17 05:39:02;;;;;;;12.93;5.13;;;;;;;4.81;100.00;102807.56;5003350;28;20313;-74
2023/12/17 05:41:29;;;;;;;13.77;6.07;;;;;;;4.79;100.00;102806.50;5004867;28;20674;-72
2023/12/17 05:43:55;;;;;;;14.40;5.70;;;;;;;4.82;100.00;102817.25;5009006;28;20962;-72
2023/12/17 05:46:22;;;;;;;12.43;5.27;;;;;;;4.75;100.00;102804.44;5010489;28;20575;-72
2023/12/17 05:48:48;;;;;;;9.70;4.93;;;;;;;4.76;100.00;102810.59;5016860;23;20235;-70
2023/12/17 05:51:15;;;;;;;12.07;5.60;;;;;;;4.77;100.00;102810.72;5005643;28;20336;-70
2023/12/17 05:53:41;;;;;;;12.27;5.97;;;;;;;4.77;100.00;102807.19;5001459;28;20209;-70
2023/12/17 05:56:13;;;;;;;12.60;5.33;;;;;;;4.77;100.00;102805.47;5007068;28;20728;-70
2023/12/17 05:58:39;;;;;;;14.33;6.23;;;;;;;4.78;100.00;102806.38;5004848;28;20231;-70
2023/12/17 06:01:06;;;;;;;10.33;5.37;;;;;;;4.83;100.00;102807.66;5012476;28;20290;-70
2023/12/17 06:03:35;;;;;;;12.57;6.23;;;;;;;4.86;100.00;102810.53;5003981;28;20723;-69
2023/12/17 06:06:02;;;;;;;19.67;5.73;;;;;;;4.84;100.00;102806.88;5003324;28;20198;-69
2023/12/17 06:08:28;;;;;;;16.17;5.67;;;;;;;4.85;100.00;102814.88;5006601;28;20220;-70
2023/12/17 06:10:55;;;;;;;12.47;5.20;;;;;;;4.83;100.00;102826.03;5010159;28;20234;-71
2023/12/17 06:13:21;;;;;;;18.67;5.87;;;;;;;4.85;100.00;102813.94;5025973;28;20197;-70
2023/12/17 06:15:48;;;;;;;11.27;5.80;;;;;;;4.85;100.00;102821.81;5011115;28;20215;-71
2023/12/17 06:18:16;;;;;;;10.53;4.83;;;;;;;4.84;100.00;102822.63;5008623;28;20308;-70
2023/12/17 06:20:44;;;;;;;15.87;5.50;;;;;;;4.85;100.00;102817.50;5008186;28;20216;-71
2023/12/17 06:23:11;;;;;;;10.17;5.60;;;;;;;4.82;100.00;102822.50;5009823;28;20200;-70
2023/12/17 06:25:37;;;;;;;10.80;5.47;;;;;;;4.89;100.00;102816.91;5024898;28;20699;-70
2023/12/17 06:28:04;;;;;;;11.07;5.70;;;;;;;4.94;100.00;102819.88;5007070;28;20248;-70
2023/12/17 06:30:32;;;;;;;9.60;5.47;;;;;;;4.93;100.00;102823.31;5005593;28;20214;-70
2023/12/17 06:32:59;;;;;;;12.90;4.90;;;;;;;4.94;100.00;102827.75;5008272;28;20214;-70
2023/12/17 06:35:26;;;;;;;12.50;5.27;;;;;;;4.89;100.00;102832.66;5010618;28;20207;-70
2023/12/17 06:37:53;;;;;;;14.20;5.03;;;;;;;4.91;100.00;102825.81;5013698;28;20229;-70
2023/12/17 06:40:19;;;;;;;11.37;5.10;;;;;;;4.92;100.00;102825.03;5007499;28;20760;-70
2023/12/17 06:42:45;;;;;;;13.37;5.43;;;;;;;4.90;100.00;102828.34;5003392;28;20198;-70
2023/12/17 06:45:12;;;;;;;9.10;4.90;;;;;;;4.91;100.00;102838.94;5004968;28;20221;-70
2023/12/17 06:47:38;;;;;;;10.40;4.53;;;;;;;4.92;100.00;102829.34;5010186;28;20229;-70
2023/12/17 06:50:06;;;;;;;8.13;4.50;;;;;;;4.90;100.00;102829.25;5011951;28;20210;-70
2023/12/17 06:52:33;;;;;;;8.40;4.00;;;;;;;4.92;100.00;102835.53;5027104;28;20326;-70
2023/12/17 06:54:59;;;;;;;9.43;4.03;;;;;;;5.00;100.00;102829.13;5003576;28;20203;-70
2023/12/17 06:57:25;;;;;;;9.97;3.73;;;;;;;4.96;100.00;102820.91;5007345;28;20751;-70
2023/12/17 06:59:52;;;;;;;7.80;3.43;;;;;;;4.98;100.00;102824.56;5010235;28;20217;-70
2023/12/17 07:02:18;;;;;;;8.93;3.63;;;;;;;4.96;100.00;102820.91;5004573;28;20203;-70
2023/12/17 07:04:45;;;;;;;9.13;3.53;;;;;;;4.96;100.00;102828.78;5022479;28;20205;-70
2023/12/17 07:07:11;;;;;;;6.00;3.03;;;;;;;4.97;100.00;102822.75;5011572;28;20201;-70
2023/12/17 07:09:38;;;;;;;5.13;2.77;;;;;;;4.92;100.00;102829.34;5010710;28;20582;-70
2023/12/17 07:12:04;;;;;;;7.77;3.33;;;;;;;4.93;100.00;102824.22;5008011;28;20690;-71
2023/12/17 07:14:31;;;;;;;8.50;3.70;;;;;;;4.92;100.00;102830.28;5004516;28;20210;-70
2023/12/17 07:16:57;;;;;;;7.03;3.17;;;;;;;4.86;100.00;102818.41;5021521;28;20233;-70
2023/12/17 07:19:25;;;;;;;6.17;3.20;;;;;;;4.92;100.00;102824.09;5008749;28;20222;-70
2023/12/17 07:21:52;;;;;;;5.30;2.83;;;;;;;4.88;100.00;102820.34;5002792;28;20284;-70
2023/12/17 07:24:18;;;;;;;5.03;2.80;;;;;;;4.99;100.00;102829.00;5004524;28;20205;-70
2023/12/17 07:26:45;;;;;;;6.30;2.93;;;;;;;4.90;100.00;102818.75;5004975;28;20206;-70
2023/12/17 07:29:12;;;;;;;7.17;3.33;;;;;;;4.92;100.00;102822.41;5004671;28;20651;-70
2023/12/17 07:31:38;;;;;;;8.43;3.60;;;;;;;4.91;100.00;102824.91;5022783;28;20734;-70
2023/12/17 07:34:04;;;;;;;6.23;2.90;;;;;;;4.92;100.00;102813.59;5001467;28;20202;-70
2023/12/17 07:36:31;;;;;;;5.90;3.00;;;;;;;4.93;100.00;102823.31;5005355;28;20246;-70
2023/12/17 07:38:57;;;;;;;5.07;3.10;;;;;;;4.97;100.00;102826.28;5004733;28;20321;-70
2023/12/17 07:41:24;;;;;;;6.17;2.73;;;;;;;4.97;100.00;102826.28;5003115;28;20688;-70
2023/12/17 07:43:50;;;;;;;6.37;3.37;;;;;;;5.09;100.00;102831.53;5002120;28;20260;-70
2023/12/17 07:46:17;;;;;;;5.90;2.50;;;;;;;5.02;100.00;102824.91;5007231;28;20295;-70
2023/12/17 07:48:43;;;;;;;6.40;2.80;;;;;;;5.02;100.00;102822.28;4999758;28;20233;-71
2023/12/17 07:51:10;;;;;;;5.03;2.50;;;;;;;4.98;100.00;102829.81;5003894;28;20404;-70
2023/12/17 07:53:39;;;;;;;5.53;2.80;;;;;;;4.95;100.00;102822.63;5005588;28;20215;-70
2023/12/17 07:56:08;;;;;;;4.90;2.40;;;;;;;5.02;100.00;102829.25;5005416;28;20954;-70
2023/12/17 07:58:34;;;;;;;6.13;2.50;;;;;;;5.01;100.00;102830.03;5004643;28;20230;-70
2023/12/17 08:01:00;;;;;;;7.57;2.43;;;;;;;4.99;100.00;102837.81;5005382;28;20643;-70
2023/12/17 08:03:27;;;;;;;5.60;2.50;;;;;;;4.94;100.00;102815.53;5009084;28;20202;-70
2023/12/17 08:05:54;;;;;;;5.20;3.10;;;;;;;4.99;100.00;102822.03;5004774;28;20209;-70
2023/12/17 08:08:20;;;;;;;7.37;2.80;;;;;;;5.02;100.00;102819.66;5006489;28;20607;-70
2023/12/17 08:10:49;;;;;;;6.93;2.60;;;;;;;5.01;100.00;102820.44;5005560;28;20228;-70
2023/12/17 08:13:15;;;;;;;4.30;2.57;;;;;;;5.05;100.00;102818.97;5004377;28;20231;-71
2023/12/17 08:15:44;;;;;;;4.30;2.70;;;;;;;5.04;100.00;102815.41;5006763;28;20206;-70
2023/12/17 08:18:11;;;;;;;5.30;2.63;;;;;;;5.12;100.00;102825.56;5007908;28;20227;-70
2023/12/17 08:20:38;;;;;;;5.23;2.97;;;;;;;5.16;100.00;102827.63;5007186;28;20577;-70
2023/12/17 08:23:04;;;;;;;5.07;2.93;;;;;;;5.16;100.00;102825.00;5004168;28;20198;-70
2023/12/17 08:25:31;;;;;;;7.43;3.37;;;;;;;5.22;100.00;102826.41;5006508;28;20548;-70
2023/12/17 08:27:57;;;;;;;7.30;3.23;;;;;;;5.22;100.00;102823.78;5007464;28;20308;-70
2023/12/17 08:30:24;;;;;;;7.33;3.43;;;;;;;5.23;100.00;102829.94;4999269;28;20665;-70
2023/12/17 08:32:51;;;;;;;5.60;3.20;;;;;;;5.25;100.00;102833.59;5001327;28;20586;-70
2023/12/17 08:35:17;;;;;;;6.80;2.87;;;;;;;5.24;100.00;102832.69;5003330;28;20480;-70
2023/12/17 08:37:44;;;;;;;6.97;3.00;;;;;;;5.28;100.00;102832.09;5017632;28;20315;-70
2023/12/17 08:40:11;;;;;;;5.93;3.10;;;;;;;5.27;100.00;102843.41;5002822;28;20620;-70
2023/12/17 08:42:37;;;;;;;4.97;2.57;;;;;;;5.23;100.00;102838.72;5000040;28;20304;-70
2023/12/17 08:45:04;;;;;;;6.17;2.73;;;;;;;5.26;100.00;102853.81;5003448;28;20628;-71
2023/12/17 08:47:30;;;;;;;4.80;2.80;;;;;;;5.26;100.00;102851.19;5007084;28;20225;-70
2023/12/17 08:49:59;;;;;;;6.80;3.27;;;;;;;5.31;100.00;102849.81;5007320;28;20635;-70
2023/12/17 08:52:26;;;;;;;7.90;3.30;;;;;;;5.38;100.00;102852.06;5023762;28;20241;-70
2023/12/17 08:54:55;;;;;;;6.27;2.97;;;;;;;5.34;100.00;102850.94;5007535;28;20238;-70
2023/12/17 08:57:22;;;;;;;5.37;3.07;;;;;;;5.31;100.00;102839.28;5001940;28;20745;-71
2023/12/17 08:59:48;;;;;;;6.00;3.10;;;;;;;5.39;100.00;102847.72;4998306;28;20326;-70
2023/12/17 09:02:14;;;;;;;6.50;3.40;;;;;;;5.39;100.00;102860.88;5000022;28;20257;-70
2023/12/17 09:04:41;;;;;;;6.60;2.93;;;;;;;5.37;100.00;102845.00;5006125;28;20301;-70
2023/12/17 09:07:07;;;;;;;5.40;3.03;;;;;;;5.41;100.00;102867.16;5002655;28;20579;-70
2023/12/17 09:09:34;;;;;;;5.97;3.27;;;;;;;5.39;100.00;102851.28;5005550;28;20213;-70
2023/12/17 09:12:00;;;;;;;6.40;3.27;;;;;;;5.43;100.00;102855.94;5008980;28;20306;-70
2023/12/17 09:14:26;;;;;;;6.40;3.23;;;;;;;5.44;100.00;102846.34;5027870;28;20210;-71
2023/12/17 09:16:53;;;;;;;4.97;2.70;;;;;;;5.47;100.00;102847.50;5013856;28;20211;-70
2023/12/17 09:19:20;;;;;;;5.90;2.63;;;;;;;5.48;100.00;102845.78;5012659;28;20254;-70
2023/12/17 09:21:46;;;;;;;4.83;2.43;;;;;;;5.47;100.00;102847.50;5017533;28;20578;-71
2023/12/17 09:24:13;;;;;;;6.43;3.13;;;;;;;5.53;100.00;102852.28;5016205;28;20500;-71
2023/12/17 09:26:40;;;;;;;6.03;3.10;;;;;;;5.51;100.00;102854.78;5018586;28;20640;-70
2023/12/17 09:29:07;;;;;;;7.07;3.17;;;;;;;5.55;100.00;102851.59;5008830;28;20223;-71
2023/12/17 09:31:34;;;;;;;7.07;3.37;;;;;;;5.60;100.00;102859.81;5025504;28;20220;-70
2023/12/17 09:34:00;;;;;;;5.10;3.17;;;;;;;5.63;100.00;102860.97;5015853;28;20708;-71
2023/12/17 09:36:27;;;;;;;6.27;2.90;;;;;;;5.68;100.00;102855.13;5007561;28;20211;-75
2023/12/17 09:38:54;;;;;;;7.37;3.10;;;;;;;5.73;100.00;102856.38;5026163;28;20658;-68
2023/12/17 09:41:20;;;;;;;6.23;3.27;;;;;;;5.74;100.00;102861.75;5016101;28;20211;-68
2023/12/17 09:43:47;;;;;;;5.87;3.10;;;;;;;5.78;100.00;102858.53;5016731;28;20678;-68
2023/12/17 09:46:13;;;;;;;6.00;2.73;;;;;;;5.82;100.00;102857.03;5017149;28;21300;-68
2023/12/17 09:48:39;;;;;;;6.43;3.03;;;;;;;5.83;100.00;102861.47;5017998;28;20307;-68
2023/12/17 09:51:10;;;;;;;5.53;2.90;;;;;;;5.83;100.00;102857.13;5011639;28;20215;-69
2023/12/17 09:53:37;;;;;;;6.17;2.87;;;;;;;5.87;100.00;102863.53;5022832;28;20220;-69
2023/12/17 09:56:04;;;;;;;5.43;2.97;;;;;;;5.86;100.00;102859.06;5019243;28;20201;-69
2023/12/17 09:58:30;;;;;;;6.20;3.13;;;;;;;5.79;100.00;102854.19;5037288;28;20665;-70
2023/12/17 10:00:57;;;;;;;5.50;2.80;;;;;;;5.81;100.00;102852.56;5011102;28;20225;-69
2023/12/17 10:03:24;;;;;;;5.83;2.57;;;;;;;5.83;100.00;102857.13;5018749;28;20227;-70
2023/12/17 10:05:53;;;;;;;5.40;2.97;;;;;;;5.86;100.00;102859.97;5017578;28;20651;-69
2023/12/17 10:08:20;;;;;;;4.90;2.60;;;;;;;5.89;100.00;102854.03;5015033;28;20224;-69
2023/12/17 10:10:46;;;;;;;5.07;2.47;;;;;;;5.93;100.00;102851.75;5011568;28;20220;-70
2023/12/17 10:13:20;;;;;;;6.13;2.83;;;;;;;5.97;100.00;102842.38;5004533;28;20227;-70
2023/12/17 10:15:53;;;;;;;6.30;3.03;;;;;;;6.04;100.00;102836.78;5005340;28;20216;-70
2023/12/17 10:18:20;;;;;;;6.07;2.80;;;;;;;6.07;100.00;102843.97;5012626;28;20216;-70
2023/12/17 10:20:48;;;;;;;5.27;2.80;;;;;;;6.07;100.00;102842.25;5019180;28;20295;-71
2023/12/17 10:23:15;;;;;;;4.13;2.43;;;;;;;6.10;100.00;102828.41;5014244;28;20199;-69
2023/12/17 10:25:43;;;;;;;5.47;2.93;;;;;;;6.14;100.00;102831.34;5014140;28;20370;-70
2023/12/17 10:28:10;;;;;;;3.67;2.20;;;;;;;6.11;100.00;102830.22;5021943;28;20233;-70
2023/12/17 10:30:38;;;;;;;5.07;2.97;;;;;;;6.11;100.00;102825.88;5015865;28;20230;-70
2023/12/17 10:33:11;;;;;;;3.67;2.50;;;;;;;6.04;100.00;102820.06;5012171;28;20227;-70
2023/12/17 10:35:38;;;;;;;4.53;2.77;;;;;;;6.08;100.00;102823.03;5009416;28;20712;-70
2023/12/17 10:38:08;;;;;;;6.23;3.03;;;;;;;6.08;100.00;102819.47;5005924;28;20223;-70
2023/12/17 10:40:36;;;;;;;3.57;2.47;;;;;;;6.10;100.00;102817.88;5008989;28;20203;-70
2023/12/17 10:43:04;;;;;;;3.73;2.30;;;;;;;6.06;100.00;102814.13;5004585;28;20232;-70
2023/12/17 10:45:31;;;;;;;4.10;2.30;;;;;;;6.01;100.00;102818.16;5008743;28;20205;-70
2023/12/17 10:47:59;;;;;;;5.13;2.87;;;;;;;6.03;100.00;102807.72;5008948;28;20228;-70
2023/12/17 10:50:26;;;;;;;4.23;2.50;;;;;;;6.05;100.00;102807.03;5005962;28;20206;-71
2023/12/17 10:52:53;;;;;;;4.23;2.57;;;;;;;6.11;100.00;102793.38;4999754;28;20217;-70
2023/12/17 10:55:22;;;;;;;6.53;2.47;;;;;;;6.21;100.00;102793.22;5010592;28;20238;-70
2023/12/17 10:58:08;;;;;;;4.70;2.93;;;;;;;6.20;100.00;102784.41;5009417;28;20227;-70
2023/12/17 11:00:37;;;;;;;5.93;2.87;;;;;;;6.22;100.00;102774.91;5008057;28;20680;-70
2023/12/17 11:03:06;;;;;;;6.60;2.73;;;;;;;6.30;100.00;102778.06;5008716;28;20237;-70
2023/12/17 11:05:33;;;;;;;7.67;3.20;;;;;;;6.35;100.00;102767.84;5009451;28;20210;-70
2023/12/17 11:07:59;;;;;;;6.77;3.23;;;;;;;6.44;100.00;102764.16;5009308;28;20771;-70
2023/12/17 11:10:26;;;;;;;7.33;3.00;;;;;;;6.49;100.00;102757.47;5006061;28;20575;-70
2023/12/17 11:12:53;;;;;;;5.87;2.90;;;;;;;6.44;100.00;102750.97;5002374;28;20227;-70
2023/12/17 11:15:20;;;;;;;8.50;3.53;;;;;;;6.48;100.00;102752.09;5007159;28;20575;-70
2023/12/17 11:17:51;;;;;;;8.80;3.43;;;;;;;6.31;100.00;102735.16;5009400;28;20470;-70
2023/12/17 11:20:18;;;;;;;7.70;3.47;;;;;;;6.20;100.00;102744.94;5000606;28;20208;-70